To NAV CANADA Home Page Login to a new session Search on AWWS site Feedback and Comments Disclaimer Vers la page française équivalente Tips FAQ What's new on the site To the Forecasts and Observations / NOTAM section To "File a Flight Plan" website Publications and other links Update of the User's profile FIC Telephone Numbers My Weather Data Folder Route Weather Data Regional Weather Data Local Weather Data To the Forecasts and Observations / NOTAM section
Request Generated 09/25/2016 at 20:47:57 UTC . Weather information available at that time is displayed.

METAR/TAF

NAIN/NL    

SPECI CYDP 252005Z 35020KT 15SM OVC020 OVC220 05/00 A2999 RMK SC8CI1
CI TR SLP156=
METAR CYDP 252000Z 35021KT 15SM -SHRA OVC020 OVC220 05/00 A2999 RMK
SC8CI1 CI TR SLP156=
METAR CYDP 251900Z 34019G28KT 15SM -SHRA BKN020 OVC080 04/01 A2998
RMK SC7AS1 SLP154=
METAR CYDP 251800Z 35019G24KT 15SM -SHRA BKN023 04/02 A2997 RMK SC7
SLP151=

TAF CYDP 251938Z 2520/2523 34020G30KT P6SM -RA OVC020 TEMPO 2520/2523
P6SM NSW OVC025
RMK NXT FCST WILL BE ISSUED AT 260945Z=
Your time UTC time
Weather data provided by Environment Canada and NAV CANADA